Terminal Aerodrome Forecast
Issued by NWS

Home | Current Version | Previous Version | Text Only | Print | Product List | Glossary On
Versions: 1 2 3 4 5 6 7 8 9 10 11 12 13 14 15
917
FTAK31 PAJN 261127
TAFAGY
TAF
PAGY 261127Z 2612/2712 21007KT P6SM BKN030 OVC040
     FM261900 21010G20KT P6SM BKN050 OVC070
     FM262300 21020G30KT P6SM BKN050 OVC070
     FM270800 21010G20KT P6SM OVC050
      AMD LTD TO CLD VIS AND WIND=

USA.gov is the U.S. government's official web portal to all federal, state and local government web resources and services.